Time,TemperatureF,DewpointF,PressureIn,WindDirection,WindDirectionDegrees,WindSpeedMPH,WindSpeedGustMPH,Humidity,HourlyPrecipIn,Conditions,Clouds,dailyrainin,SolarRadiationWatts/m^2,SoftwareType,DateUTC
2013-07-15 00:03:00,63.4,53.5,30.03,ENE,74,3.0,3.0,70,0.00,,---,0.00,0.00,VWS V14.01,2013-07-15 07:03:00,
2013-07-15 00:08:00,63.0,53.5,30.03,East,88,0.0,4.0,71,0.00,,---,0.00,0.00,VWS V14.01,2013-07-15 07:08:00,
2013-07-15 00:13:00,62.4,53.6,30.03,East,88,0.0,0.0,73,0.00,,---,0.00,0.00,VWS V14.01,2013-07-15 07:13:00,
2013-07-15 00:18:00,61.8,53.8,30.03,East,88,0.0,3.0,75,0.00,,---,0.00,0.00,VWS V14.01,2013-07-15 07:18:00,
2013-07-15 00:23:00,61.7,53.7,30.03,East,88,0.0,2.0,75,0.00,,---,0.00,0.00,VWS V14.01,2013-07-15 07:23:00,
2013-07-15 00:28:00,61.5,53.2,30.03,East,88,0.0,3.0,74,0.00,,---,0.00,0.00,VWS V14.01,2013-07-15 07:28:00,
2013-07-15 00:33:00,61.3,53.0,30.03,East,88,0.0,1.0,74,0.00,,---,0.00,0.00,VWS V14.01,2013-07-15 07:33:00,
2013-07-15 00:38:00,61.1,53.5,30.03,East,88,0.0,1.0,76,0.00,,---,0.00,0.00,VWS V14.01,2013-07-15 07:38:00,
2013-07-15 00:43:00,61.0,51.9,30.03,ENE,67,0.0,4.0,72,0.00,,---,0.00,0.00,VWS V14.01,2013-07-15 07:43:00,
2013-07-15 00:48:00,61.4,52.3,30.03,ENE,67,0.0,4.0,72,0.00,,---,0.00,0.00,VWS V14.01,2013-07-15 07:48:00,
2013-07-15 00:53:00,61.5,51.6,30.03,NE,50,0.0,4.0,70,0.00,,---,0.00,0.00,VWS V14.01,2013-07-15 07:53:00,
2013-07-15 00:58:00,61.6,51.7,30.03,NNW,345,0.0,5.0,70,0.00,,---,0.00,0.00,VWS V14.01,2013-07-15 07:58:00,
2013-07-15 01:03:00,61.8,52.3,30.03,NNW,346,1.0,2.0,71,0.00,,---,0.00,0.00,VWS V14.01,2013-07-15 08:03:00,
2013-07-15 01:08:00,61.8,51.9,30.03,NNW,347,0.0,2.0,70,0.00,,---,0.00,0.00,VWS V14.01,2013-07-15 08:08:00,
2013-07-15 01:13:00,61.3,52.6,30.03,NNW,347,0.0,1.0,73,0.00,,---,0.00,0.00,VWS V14.01,2013-07-15 08:13:00,
2013-07-15 01:18:00,60.8,52.1,30.03,NNW,347,0.0,2.0,73,0.00,,---,0.00,0.00,VWS V14.01,2013-07-15 08:18:00,
2013-07-15 01:23:00,60.6,51.9,30.03,NNW,347,0.0,0.0,73,0.00,,---,0.00,0.00,VWS V14.01,2013-07-15 08:23:00,
2013-07-15 01:28:00,60.5,51.4,30.04,NNW,347,0.0,1.0,72,0.00,,---,0.00,0.00,VWS V14.01,2013-07-15 08:28:00,
2013-07-15 01:33:00,60.3,52.0,30.04,NNW,347,0.0,0.0,74,0.00,,---,0.00,0.00,VWS V14.01,2013-07-15 08:33:00,
2013-07-15 01:38:00,60.4,52.1,30.04,NNW,347,0.0,1.0,74,0.00,,---,0.00,0.00,VWS V14.01,2013-07-15 08:38:00,
2013-07-15 01:43:00,60.1,52.2,30.04,NNW,347,0.0,0.0,75,0.00,,---,0.00,0.00,VWS V14.01,2013-07-15 08:43:00,
2013-07-15 01:48:00,59.9,52.0,30.04,NNW,347,0.0,1.0,75,0.00,,---,0.00,0.00,VWS V14.01,2013-07-15 08:48:00,
2013-07-15 01:53:00,59.7,51.4,30.04,NNW,347,0.0,1.0,74,0.00,,---,0.00,0.00,VWS V14.01,2013-07-15 08:53:00,
2013-07-15 01:58:00,59.6,51.7,30.04,NNW,347,0.0,1.0,75,0.00,,---,0.00,0.00,VWS V14.01,2013-07-15 08:58:00,
2013-07-15 02:03:00,59.5,51.2,30.04,NNW,347,0.0,2.0,74,0.00,,---,0.00,0.00,VWS V14.01,2013-07-15 09:03:00,
2013-07-15 02:08:00,59.5,50.8,30.04,NNW,347,0.0,2.0,73,0.00,,---,0.00,0.00,VWS V14.01,2013-07-15 09:08:00,
2013-07-15 02:13:00,59.5,50.8,30.04,NNW,347,0.0,2.0,73,0.00,,---,0.00,0.00,VWS V14.01,2013-07-15 09:13:00,
2013-07-15 02:18:00,59.5,50.8,30.04,NNW,347,0.0,2.0,73,0.00,,---,0.00,0.00,VWS V14.01,2013-07-15 09:18:00,
2013-07-15 02:23:00,59.5,50.8,30.05,NNW,347,0.0,1.0,73,0.00,,---,0.00,0.00,VWS V14.01,2013-07-15 09:23:00,
2013-07-15 02:28:00,59.3,50.7,30.05,NNW,347,0.0,2.0,73,0.00,,---,0.00,0.00,VWS V14.01,2013-07-15 09:28:00,
2013-07-15 02:33:00,59.2,50.6,30.05,NNW,347,0.0,0.0,73,0.00,,---,0.00,0.00,VWS V14.01,2013-07-15 09:33:00,
2013-07-15 02:38:00,59.2,50.2,30.05,NNW,347,0.0,1.0,72,0.00,,---,0.00,0.00,VWS V14.01,2013-07-15 09:38:00,
2013-07-15 02:43:00,59.1,51.2,30.05,NNW,347,0.0,0.0,75,0.00,,---,0.00,0.00,VWS V14.01,2013-07-15 09:43:00,
2013-07-15 02:48:00,58.9,50.6,30.05,NNW,347,0.0,1.0,74,0.00,,---,0.00,0.00,VWS V14.01,2013-07-15 09:48:00,
2013-07-15 02:53:00,59.0,50.4,30.05,NNW,347,0.0,0.0,73,0.00,,---,0.00,0.00,VWS V14.01,2013-07-15 09:53:00,
2013-07-15 02:58:00,58.9,51.0,30.06,NNW,347,0.0,0.0,75,0.00,,---,0.00,0.00,VWS V14.01,2013-07-15 09:58:00,
2013-07-15 03:03:00,58.7,50.8,30.06,NNW,347,0.0,0.0,75,0.00,,---,0.00,0.00,VWS V14.01,2013-07-15 10:03:00,
2013-07-15 03:08:00,58.7,50.8,30.06,NNW,347,0.0,1.0,75,0.00,,---,0.00,0.00,VWS V14.01,2013-07-15 10:08:00,
2013-07-15 03:13:00,58.5,50.6,30.06,NNW,347,0.0,1.0,75,0.00,,---,0.00,0.00,VWS V14.01,2013-07-15 10:13:00,
2013-07-15 03:18:00,58.6,50.7,30.06,NNW,347,0.0,1.0,75,0.00,,---,0.00,0.00,VWS V14.01,2013-07-15 10:18:00,
2013-07-15 03:23:00,58.7,50.8,30.06,NNW,347,0.0,1.0,75,0.00,,---,0.00,0.00,VWS V14.01,2013-07-15 10:23:00,
2013-07-15 03:28:00,58.7,50.8,30.06,NNW,347,0.0,1.0,75,0.00,,---,0.00,0.00,VWS V14.01,2013-07-15 10:28:00,
2013-07-15 03:34:00,58.7,51.2,30.06,NNW,347,0.0,0.0,76,0.00,,---,0.00,0.00,VWS V14.01,2013-07-15 10:34:00,
2013-07-15 03:39:00,58.7,51.9,30.06,NNW,347,0.0,1.0,78,0.00,,---,0.00,0.00,VWS V14.01,2013-07-15 10:39:00,
2013-07-15 03:44:00,58.6,52.1,30.06,NNW,347,0.0,1.0,79,0.00,,---,0.00,0.00,VWS V14.01,2013-07-15 10:44:00,
2013-07-15 03:49:00,58.6,52.1,30.06,NNW,347,0.0,1.0,79,0.00,,---,0.00,0.00,VWS V14.01,2013-07-15 10:49:00,
2013-07-15 03:54:00,58.6,52.1,30.07,NNW,347,0.0,1.0,79,0.00,,---,0.00,0.00,VWS V14.01,2013-07-15 10:54:00,
2013-07-15 03:59:00,58.6,52.5,30.07,NNW,347,0.0,1.0,80,0.00,,---,0.00,0.00,VWS V14.01,2013-07-15 10:59:00,
2013-07-15 04:04:00,58.5,52.7,30.07,NNW,347,0.0,1.0,81,0.00,,---,0.00,0.00,VWS V14.01,2013-07-15 11:04:00,
2013-07-15 04:09:00,58.3,52.8,30.07,NNW,347,0.0,1.0,82,0.00,,---,0.00,0.00,VWS V14.01,2013-07-15 11:09:00,
2013-07-15 04:14:00,58.3,52.5,30.06,NNW,347,0.0,0.0,81,0.00,,---,0.00,0.00,VWS V14.01,2013-07-15 11:14:00,
2013-07-15 04:19:00,58.2,52.7,30.06,NNW,347,1.0,1.0,82,0.00,,---,0.00,0.00,VWS V14.01,2013-07-15 11:19:00,
2013-07-15 04:24:00,58.1,52.3,30.07,NNW,347,0.0,3.0,81,0.00,,---,0.00,0.00,VWS V14.01,2013-07-15 11:24:00,
2013-07-15 04:29:00,58.2,52.4,30.07,NNW,347,0.0,3.0,81,0.00,,---,0.00,0.00,VWS V14.01,2013-07-15 11:29:00,
2013-07-15 04:34:00,58.0,52.2,30.07,NNW,347,0.0,0.0,81,0.00,,---,0.00,0.00,VWS V14.01,2013-07-15 11:34:00,
2013-07-15 04:39:00,57.9,52.5,30.07,NNW,347,0.0,1.0,82,0.00,,---,0.00,0.00,VWS V14.01,2013-07-15 11:39:00,
2013-07-15 04:44:00,57.8,52.3,30.07,NNW,347,0.0,0.0,82,0.00,,---,0.00,0.00,VWS V14.01,2013-07-15 11:44:00,
2013-07-15 04:49:00,57.6,51.8,30.07,NNW,347,0.0,1.0,81,0.00,,---,0.00,0.00,VWS V14.01,2013-07-15 11:49:00,
2013-07-15 04:54:00,57.5,51.7,30.07,NNW,347,0.0,1.0,81,0.00,,---,0.00,0.00,VWS V14.01,2013-07-15 11:54:00,
2013-07-15 04:59:00,57.5,51.7,30.07,NNW,347,0.0,1.0,81,0.00,,---,0.00,0.00,VWS V14.01,2013-07-15 11:59:00,
2013-07-15 05:04:00,57.3,51.5,30.07,NNW,347,0.0,3.0,81,0.00,,---,0.00,0.00,VWS V14.01,2013-07-15 12:04:00,
2013-07-15 05:09:00,57.2,51.4,30.07,NNW,347,0.0,3.0,81,0.00,,---,0.00,0.00,VWS V14.01,2013-07-15 12:09:00,
2013-07-15 05:14:00,57.1,51.0,30.07,NNW,347,0.0,1.0,80,0.00,,---,0.00,0.00,VWS V14.01,2013-07-15 12:14:00,
2013-07-15 05:19:00,57.0,50.9,30.07,NNW,347,0.0,1.0,80,0.00,,---,0.00,0.00,VWS V14.01,2013-07-15 12:19:00,
2013-07-15 05:24:00,57.0,51.2,30.07,NNW,347,0.0,1.0,81,0.00,,---,0.00,0.00,VWS V14.01,2013-07-15 12:24:00,
2013-07-15 05:29:00,57.0,51.2,30.07,NNW,347,0.0,1.0,81,0.00,,---,0.00,0.00,VWS V14.01,2013-07-15 12:29:00,
2013-07-15 05:34:00,57.0,51.6,30.07,NNW,347,0.0,1.0,82,0.00,,---,0.00,5.00,VWS V14.01,2013-07-15 12:34:00,
2013-07-15 05:39:00,57.1,51.7,30.07,NNW,347,0.0,1.0,82,0.00,,---,0.00,7.00,VWS V14.01,2013-07-15 12:39:00,
2013-07-15 05:44:00,57.1,52.0,30.07,NNW,347,1.0,2.0,83,0.00,,---,0.00,7.00,VWS V14.01,2013-07-15 12:44:00,
2013-07-15 05:49:00,57.2,51.8,30.07,NNW,347,0.0,3.0,82,0.00,,---,0.00,9.00,VWS V14.01,2013-07-15 12:49:00,
2013-07-15 05:54:00,57.2,51.8,30.07,NNW,347,0.0,1.0,82,0.00,,---,0.00,9.00,VWS V14.01,2013-07-15 12:54:00,
2013-07-15 05:59:00,57.2,51.8,30.07,NNW,347,0.0,1.0,82,0.00,,---,0.00,11.00,VWS V14.01,2013-07-15 12:59:00,
2013-07-15 06:04:00,57.0,50.9,30.08,NNW,347,0.0,1.0,80,0.00,,---,0.00,11.00,VWS V14.01,2013-07-15 13:04:00,
2013-07-15 06:09:00,57.0,50.6,30.08,NNW,347,0.0,3.0,79,0.00,,---,0.00,12.00,VWS V14.01,2013-07-15 13:09:00,
2013-07-15 06:16:00,57.0,50.6,30.08,NNW,347,0.0,1.0,79,0.00,,---,0.00,12.00,VWS V14.01,2013-07-15 13:16:00,
2013-07-15 06:20:00,57.0,50.2,30.08,NNW,347,0.0,1.0,78,0.00,,---,0.00,14.00,VWS V14.01,2013-07-15 13:20:00,
2013-07-15 06:21:00,57.0,50.2,30.08,NNW,347,0.0,0.0,78,0.00,,---,0.00,14.00,VWS V14.01,2013-07-15 13:21:00,
2013-07-15 06:26:00,57.0,50.2,30.08,NNW,347,0.0,0.0,78,0.00,,---,0.00,14.00,VWS V14.01,2013-07-15 13:26:00,
2013-07-15 06:30:00,57.0,50.2,30.08,NNW,347,0.0,3.0,78,0.00,,---,0.00,16.00,VWS V14.01,2013-07-15 13:30:00,
2013-07-15 06:31:00,56.9,50.1,30.08,NNW,347,0.0,0.0,78,0.00,,---,0.00,16.00,VWS V14.01,2013-07-15 13:31:00,
2013-07-15 06:36:00,57.0,50.2,30.08,NNW,347,0.0,1.0,78,0.00,,---,0.00,16.00,VWS V14.01,2013-07-15 13:36:00,
2013-07-15 06:40:00,56.9,49.8,30.08,NNW,347,0.0,1.0,77,0.00,,---,0.00,16.00,VWS V14.01,2013-07-15 13:40:00,
2013-07-15 06:41:00,56.9,49.4,30.08,NNW,347,0.0,0.0,76,0.00,,---,0.00,16.00,VWS V14.01,2013-07-15 13:41:00,
2013-07-15 06:46:00,56.9,49.8,30.08,NNW,347,0.0,1.0,77,0.00,,---,0.00,18.00,VWS V14.01,2013-07-15 13:46:00,
2013-07-15 06:50:00,56.9,49.8,30.08,NNW,347,0.0,1.0,77,0.00,,---,0.00,18.00,VWS V14.01,2013-07-15 13:50:00,
2013-07-15 06:51:00,56.9,49.8,30.08,NNW,347,0.0,0.0,77,0.00,,---,0.00,18.00,VWS V14.01,2013-07-15 13:51:00,
2013-07-15 06:56:00,56.9,49.4,30.08,NNW,347,1.0,3.0,76,0.00,,---,0.00,18.00,VWS V14.01,2013-07-15 13:56:00,
2013-07-15 07:00:00,57.0,49.5,30.08,NNW,347,2.0,3.0,76,0.00,,---,0.00,18.00,VWS V14.01,2013-07-15 14:00:00,
2013-07-15 07:01:00,57.1,49.6,30.08,NNW,347,0.0,2.0,76,0.00,,---,0.00,18.00,VWS V14.01,2013-07-15 14:01:00,
2013-07-15 07:06:00,57.1,50.0,30.08,NNW,347,0.0,2.0,77,0.00,,---,0.00,19.00,VWS V14.01,2013-07-15 14:06:00,
2013-07-15 07:10:00,57.2,50.1,30.08,NNW,347,0.0,2.0,77,0.00,,---,0.00,19.00,VWS V14.01,2013-07-15 14:10:00,
2013-07-15 07:11:00,57.2,50.1,30.08,NNW,347,0.0,0.0,77,0.00,,---,0.00,19.00,VWS V14.01,2013-07-15 14:11:00,
2013-07-15 07:16:00,57.3,50.2,30.08,NNW,347,0.0,0.0,77,0.00,,---,0.00,19.00,VWS V14.01,2013-07-15 14:16:00,
2013-07-15 07:20:00,57.2,50.8,30.08,NNW,347,0.0,3.0,79,0.00,,---,0.00,19.00,VWS V14.01,2013-07-15 14:20:00,
2013-07-15 07:21:00,57.1,50.7,30.08,NNW,347,0.0,0.0,79,0.00,,---,0.00,19.00,VWS V14.01,2013-07-15 14:21:00,
2013-07-15 07:26:00,57.1,51.0,30.08,NNW,347,0.0,2.0,80,0.00,,---,0.00,19.00,VWS V14.01,2013-07-15 14:26:00,
2013-07-15 07:30:00,57.0,50.9,30.09,NNW,347,0.0,2.0,80,0.00,,---,0.00,19.00,VWS V14.01,2013-07-15 14:30:00,
2013-07-15 07:31:00,57.1,50.7,30.09,NNW,347,0.0,0.0,79,0.00,,---,0.00,21.00,VWS V14.01,2013-07-15 14:31:00,
2013-07-15 07:36:00,57.2,51.1,30.09,NNW,347,0.0,1.0,80,0.00,,---,0.00,21.00,VWS V14.01,2013-07-15 14:36:00,
2013-07-15 07:40:00,57.2,51.1,30.09,NNW,347,0.0,1.0,80,0.00,,---,0.00,21.00,VWS V14.01,2013-07-15 14:40:00,
2013-07-15 07:41:00,57.3,51.2,30.09,NNW,347,0.0,0.0,80,0.00,,---,0.00,21.00,VWS V14.01,2013-07-15 14:41:00,
2013-07-15 07:46:00,57.3,51.2,30.09,NNW,347,1.0,3.0,80,0.00,,---,0.00,21.00,VWS V14.01,2013-07-15 14:46:00,
2013-07-15 07:50:00,57.6,51.1,30.09,NNW,347,0.0,3.0,79,0.00,,---,0.00,21.00,VWS V14.01,2013-07-15 14:50:00,
2013-07-15 07:54:00,58.0,51.9,30.09,NNW,347,0.0,1.0,80,0.00,,---,0.00,21.00,VWS V14.01,2013-07-15 14:54:00,
2013-07-15 08:00:00,58.2,51.7,30.09,NNW,347,0.0,3.0,79,0.00,,---,0.00,21.00,VWS V14.01,2013-07-15 15:00:00,
2013-07-15 08:06:00,58.7,52.2,30.09,NNW,347,0.0,1.0,79,0.00,,---,0.00,23.00,VWS V14.01,2013-07-15 15:06:00,
2013-07-15 08:10:00,58.9,52.1,30.09,NNW,347,0.0,1.0,78,0.00,,---,0.00,23.00,VWS V14.01,2013-07-15 15:10:00,
2013-07-15 08:14:00,59.2,52.3,30.09,NNW,347,0.0,0.0,78,0.00,,---,0.00,23.00,VWS V14.01,2013-07-15 15:14:00,
2013-07-15 08:19:00,59.4,52.5,30.09,NNW,347,0.0,3.0,78,0.00,,---,0.00,23.00,VWS V14.01,2013-07-15 15:19:00,
2013-07-15 08:20:00,59.5,52.6,30.09,NNW,347,0.0,3.0,78,0.00,,---,0.00,23.00,VWS V14.01,2013-07-15 15:20:00,
2013-07-15 08:27:00,60.6,53.0,30.09,NNW,347,0.0,2.0,76,0.00,,---,0.00,37.00,VWS V14.01,2013-07-15 15:27:00,
2013-07-15 08:30:00,60.8,53.2,30.09,NNW,347,0.0,2.0,76,0.00,,---,0.00,65.00,VWS V14.01,2013-07-15 15:30:00,
2013-07-15 08:32:00,60.9,53.3,30.09,NNW,347,2.0,2.0,76,0.00,,---,0.00,69.00,VWS V14.01,2013-07-15 15:32:00,
2013-07-15 08:37:00,61.3,53.0,30.09,NNW,346,0.0,3.0,74,0.00,,---,0.00,334.00,VWS V14.01,2013-07-15 15:37:00,
2013-07-15 08:40:00,61.6,52.9,30.09,NNW,346,0.0,3.0,73,0.00,,---,0.00,200.00,VWS V14.01,2013-07-15 15:40:00,
2013-07-15 08:42:00,61.8,53.1,30.09,NNW,346,0.0,0.0,73,0.00,,---,0.00,183.00,VWS V14.01,2013-07-15 15:42:00,
2013-07-15 08:47:00,62.1,54.1,30.09,NNW,346,0.0,1.0,75,0.00,,---,0.00,422.00,VWS V14.01,2013-07-15 15:47:00,
2013-07-15 08:50:00,62.3,53.9,30.09,NNW,346,0.0,2.0,74,0.00,,---,0.00,424.00,VWS V14.01,2013-07-15 15:50:00,
2013-07-15 08:55:00,62.9,53.8,30.09,NNW,346,0.0,3.0,72,0.00,,---,0.00,155.00,VWS V14.01,2013-07-15 15:55:00,
2013-07-15 09:00:00,63.2,53.7,30.09,NNW,346,0.0,1.0,71,0.00,,---,0.00,214.00,VWS V14.01,2013-07-15 16:00:00,
2013-07-15 09:05:00,63.3,53.4,30.08,NNW,346,0.0,4.0,70,0.00,,---,0.00,243.00,VWS V14.01,2013-07-15 16:05:00,
2013-07-15 09:10:00,63.5,53.5,30.09,NNW,346,0.0,4.0,70,0.00,,---,0.00,107.00,VWS V14.01,2013-07-15 16:10:00,
2013-07-15 09:15:00,63.7,53.7,30.09,NNW,340,0.0,4.0,70,0.00,,---,0.00,58.00,VWS V14.01,2013-07-15 16:15:00,
2013-07-15 09:20:00,63.8,53.5,30.09,NNW,340,0.0,0.0,69,0.00,,---,0.00,51.00,VWS V14.01,2013-07-15 16:20:00,
2013-07-15 09:28:00,64.5,53.3,30.08,NNW,340,1.0,3.0,67,0.00,,---,0.00,529.00,VWS V14.01,2013-07-15 16:28:00,
2013-07-15 09:30:00,64.7,53.5,30.09,NNW,340,2.0,3.0,67,0.00,,---,0.00,533.00,VWS V14.01,2013-07-15 16:30:00,
2013-07-15 09:33:00,65.2,53.6,30.08,NNW,340,0.0,4.0,66,0.00,,---,0.00,541.00,VWS V14.01,2013-07-15 16:33:00,
2013-07-15 09:38:00,65.6,54.0,30.08,NNW,339,0.0,4.0,66,0.00,,---,0.00,554.00,VWS V14.01,2013-07-15 16:38:00,
2013-07-15 09:40:00,65.6,53.5,30.08,NNW,339,0.0,4.0,65,0.00,,---,0.00,559.00,VWS V14.01,2013-07-15 16:40:00,
2013-07-15 09:43:00,65.9,53.8,30.08,NNW,341,0.0,4.0,65,0.00,,---,0.00,568.00,VWS V14.01,2013-07-15 16:43:00,
2013-07-15 09:48:00,66.0,53.9,30.08,NNW,342,0.0,4.0,65,0.00,,---,0.00,580.00,VWS V14.01,2013-07-15 16:48:00,
2013-07-15 09:50:00,65.9,54.2,30.08,NW,322,1.0,4.0,66,0.00,,---,0.00,584.00,VWS V14.01,2013-07-15 16:50:00,
2013-07-15 09:53:00,66.0,53.5,30.08,NW,322,0.0,3.0,64,0.00,,---,0.00,591.00,VWS V14.01,2013-07-15 16:53:00,
2013-07-15 09:58:00,66.5,54.0,30.08,NW,322,1.0,3.0,64,0.00,,---,0.00,603.00,VWS V14.01,2013-07-15 16:58:00,
2013-07-15 10:00:00,66.7,53.3,30.08,NW,322,0.0,3.0,62,0.00,,---,0.00,606.00,VWS V14.01,2013-07-15 17:00:00,
2013-07-15 10:03:00,67.3,53.8,30.08,NW,322,0.0,1.0,62,0.00,,---,0.00,613.00,VWS V14.01,2013-07-15 17:03:00,
2013-07-15 10:08:00,67.9,53.5,30.08,NW,322,0.0,2.0,60,0.00,,---,0.00,626.00,VWS V14.01,2013-07-15 17:08:00,
2013-07-15 10:10:00,68.2,53.3,30.08,NW,322,0.0,2.0,59,0.00,,---,0.00,629.00,VWS V14.01,2013-07-15 17:10:00,
2013-07-15 10:13:00,68.2,54.7,30.08,NW,322,0.0,3.0,62,0.00,,---,0.00,633.00,VWS V14.01,2013-07-15 17:13:00,
2013-07-15 10:18:00,68.5,53.2,30.08,WSW,257,2.0,5.0,58,0.00,,---,0.00,643.00,VWS V14.01,2013-07-15 17:18:00,
2013-07-15 10:20:00,68.6,52.8,30.08,WSW,257,0.0,5.0,57,0.00,,---,0.00,649.00,VWS V14.01,2013-07-15 17:20:00,
2013-07-15 10:23:00,68.9,53.1,30.08,NNW,336,3.0,5.0,57,0.00,,---,0.00,657.00,VWS V14.01,2013-07-15 17:23:00,
2013-07-15 10:28:00,68.9,53.5,30.08,NW,322,0.0,5.0,58,0.00,,---,0.00,668.00,VWS V14.01,2013-07-15 17:28:00,
2013-07-15 10:30:00,69.0,52.7,30.08,NW,304,0.0,5.0,56,0.00,,---,0.00,670.00,VWS V14.01,2013-07-15 17:30:00,
2013-07-15 10:33:00,69.7,52.3,30.08,West,276,3.0,9.0,54,0.00,,---,0.00,679.00,VWS V14.01,2013-07-15 17:33:00,
2013-07-15 10:38:00,69.7,52.8,30.08,West,278,3.0,9.0,55,0.00,,---,0.00,686.00,VWS V14.01,2013-07-15 17:38:00,
2013-07-15 10:40:00,69.7,52.3,30.08,West,278,1.0,9.0,54,0.00,,---,0.00,691.00,VWS V14.01,2013-07-15 17:40:00,
2013-07-15 10:46:00,69.5,53.6,30.08,NNW,330,1.0,5.0,57,0.00,,---,0.00,705.00,VWS V14.01,2013-07-15 17:46:00,
2013-07-15 10:50:00,69.9,54.5,30.07,WNW,293,4.0,5.0,58,0.00,,---,0.00,708.00,VWS V14.01,2013-07-15 17:50:00,
2013-07-15 10:54:00,70.1,55.1,30.08,WNW,289,3.0,8.0,59,0.00,,---,0.00,719.00,VWS V14.01,2013-07-15 17:54:00,
2013-07-15 10:59:00,70.1,55.1,30.08,West,261,4.0,8.0,59,0.00,,---,0.00,726.00,VWS V14.01,2013-07-15 17:59:00,
2013-07-15 11:00:00,70.2,55.7,30.07,WNW,286,3.0,8.0,60,0.00,,---,0.00,726.00,VWS V14.01,2013-07-15 18:00:00,
2013-07-15 11:09:00,69.5,54.1,30.08,WNW,294,5.0,10.0,58,0.00,,---,0.00,745.00,VWS V14.01,2013-07-15 18:09:00,
2013-07-15 11:10:00,69.5,54.1,30.08,WNW,288,4.0,10.0,58,0.00,,---,0.00,749.00,VWS V14.01,2013-07-15 18:10:00,
2013-07-15 11:14:00,69.7,54.3,30.08,NW,305,4.0,8.0,58,0.00,,---,0.00,754.00,VWS V14.01,2013-07-15 18:14:00,
2013-07-15 11:20:00,69.7,53.3,30.08,West,265,8.0,10.0,56,0.00,,---,0.00,766.00,VWS V14.01,2013-07-15 18:20:00,
2013-07-15 11:30:00,70.0,51.1,30.08,WNW,291,7.0,12.0,51,0.00,,---,0.00,782.00,VWS V14.01,2013-07-15 18:30:00,
2013-07-15 11:35:00,70.4,52.0,30.08,NNW,338,2.0,9.0,52,0.00,,---,0.00,791.00,VWS V14.01,2013-07-15 18:35:00,
2013-07-15 11:40:00,70.7,50.6,30.07,WNW,295,3.0,10.0,49,0.00,,---,0.00,798.00,VWS V14.01,2013-07-15 18:40:00,
2013-07-15 11:45:00,71.6,51.5,30.07,WNW,302,4.0,9.0,49,0.00,,---,0.00,805.00,VWS V14.01,2013-07-15 18:45:00,
2013-07-15 11:50:00,71.7,50.4,30.07,WNW,291,5.0,5.0,47,0.00,,---,0.00,812.00,VWS V14.01,2013-07-15 18:50:00,
2013-07-15 11:55:00,71.9,51.2,30.07,WNW,298,3.0,7.0,48,0.00,,---,0.00,817.00,VWS V14.01,2013-07-15 18:55:00,
2013-07-15 12:00:00,72.1,51.9,30.07,NW,313,3.0,5.0,49,0.00,,---,0.00,823.00,VWS V14.01,2013-07-15 19:00:00,
2013-07-15 12:05:00,72.1,50.2,30.07,West,278,4.0,10.0,46,0.00,,---,0.00,831.00,VWS V14.01,2013-07-15 19:05:00,
2013-07-15 12:10:00,71.9,51.2,30.07,West,266,4.0,10.0,48,0.00,,---,0.00,837.00,VWS V14.01,2013-07-15 19:10:00,
2013-07-15 12:12:00,72.3,50.4,30.07,WNW,290,4.0,11.0,46,0.00,,---,0.00,838.00,VWS V14.01,2013-07-15 19:12:00,
2013-07-15 12:17:00,72.6,51.2,30.06,WNW,288,2.0,11.0,47,0.00,,---,0.00,840.00,VWS V14.01,2013-07-15 19:17:00,
2013-07-15 12:20:00,72.8,51.4,30.06,WNW,292,8.0,11.0,47,0.00,,---,0.00,842.00,VWS V14.01,2013-07-15 19:20:00,
2013-07-15 12:25:00,73.0,51.6,30.06,West,262,3.0,10.0,47,0.00,,---,0.00,847.00,VWS V14.01,2013-07-15 19:25:00,
2013-07-15 12:30:00,73.0,52.2,30.06,NNW,347,4.0,11.0,48,0.00,,---,0.00,853.00,VWS V14.01,2013-07-15 19:30:00,
2013-07-15 12:33:00,73.0,51.6,30.06,West,279,8.0,10.0,47,0.00,,---,0.00,856.00,VWS V14.01,2013-07-15 19:33:00,
2013-07-15 12:40:00,73.4,52.0,30.05,NW,309,3.0,11.0,47,0.00,,---,0.00,860.00,VWS V14.01,2013-07-15 19:40:00,
2013-07-15 12:46:00,73.5,50.9,30.06,WNW,284,4.0,11.0,45,0.00,,---,0.00,865.00,VWS V14.01,2013-07-15 19:46:00,
2013-07-15 12:50:00,73.4,50.8,30.05,NNW,330,4.0,11.0,45,0.00,,---,0.00,865.00,VWS V14.01,2013-07-15 19:50:00,
2013-07-15 12:51:00,73.4,52.0,30.05,WNW,301,8.0,8.0,47,0.00,,---,0.00,867.00,VWS V14.01,2013-07-15 19:51:00,
2013-07-15 12:56:00,73.5,51.5,30.05,WNW,289,1.0,10.0,46,0.00,,---,0.00,868.00,VWS V14.01,2013-07-15 19:56:00,
2013-07-15 13:00:00,73.4,50.8,30.05,WNW,300,7.0,10.0,45,0.00,,---,0.00,870.00,VWS V14.01,2013-07-15 20:00:00,
2013-07-15 13:01:00,73.6,51.6,30.05,WNW,286,4.0,10.0,46,0.00,,---,0.00,874.00,VWS V14.01,2013-07-15 20:01:00,
2013-07-15 13:06:00,73.4,50.8,30.05,NNW,338,1.0,12.0,45,0.00,,---,0.00,874.00,VWS V14.01,2013-07-15 20:06:00,
2013-07-15 13:10:00,73.5,52.1,30.05,West,275,0.0,12.0,47,0.00,,---,0.00,874.00,VWS V14.01,2013-07-15 20:10:00,
2013-07-15 13:11:00,73.7,51.7,30.05,WNW,298,1.0,10.0,46,0.00,,---,0.00,877.00,VWS V14.01,2013-07-15 20:11:00,
2013-07-15 13:23:00,74.4,51.7,30.05,West,281,7.0,10.0,45,0.00,,---,0.00,877.00,VWS V14.01,2013-07-15 20:23:00,
2013-07-15 13:28:00,74.3,51.0,30.04,NNW,346,3.0,10.0,44,0.00,,---,0.00,877.00,VWS V14.01,2013-07-15 20:28:00,
2013-07-15 13:30:00,74.3,51.6,30.04,NW,323,0.0,10.0,45,0.00,,---,0.00,877.00,VWS V14.01,2013-07-15 20:30:00,
2013-07-15 13:33:00,75.4,51.4,30.04,WNW,284,6.0,9.0,43,0.00,,---,0.00,881.00,VWS V14.01,2013-07-15 20:33:00,
2013-07-15 13:38:00,75.3,50.0,30.04,West,281,6.0,11.0,41,0.00,,---,0.00,879.00,VWS V14.01,2013-07-15 20:38:00,
2013-07-15 13:43:00,75.3,49.3,30.04,West,266,7.0,12.0,40,0.00,,---,0.00,877.00,VWS V14.01,2013-07-15 20:43:00,
2013-07-15 13:48:00,75.4,50.7,30.04,WNW,293,2.0,13.0,42,0.00,,---,0.00,877.00,VWS V14.01,2013-07-15 20:48:00,
2013-07-15 13:50:00,75.7,51.0,30.04,NW,310,3.0,13.0,42,0.00,,---,0.00,877.00,VWS V14.01,2013-07-15 20:50:00,
2013-07-15 13:53:00,75.8,50.5,30.04,West,275,6.0,13.0,41,0.00,,---,0.00,875.00,VWS V14.01,2013-07-15 20:53:00,
2013-07-15 13:58:00,75.0,49.7,30.04,WNW,302,7.0,14.0,41,0.00,,---,0.00,872.00,VWS V14.01,2013-07-15 20:58:00,
2013-07-15 14:00:00,75.0,49.7,30.04,WNW,282,3.0,14.0,41,0.00,,---,0.00,872.00,VWS V14.01,2013-07-15 21:00:00,
2013-07-15 14:04:00,75.6,50.9,30.04,WNW,284,7.0,8.0,42,0.00,,---,0.00,867.00,VWS V14.01,2013-07-15 21:04:00,
2013-07-15 14:09:00,75.5,50.8,30.03,WNW,294,2.0,14.0,42,0.00,,---,0.00,867.00,VWS V14.01,2013-07-15 21:09:00,
2013-07-15 14:10:00,75.7,51.0,30.03,NNW,342,2.0,14.0,42,0.00,,---,0.00,867.00,VWS V14.01,2013-07-15 21:10:00,
2013-07-15 14:14:00,75.7,49.7,30.03,West,275,8.0,13.0,40,0.00,,---,0.00,865.00,VWS V14.01,2013-07-15 21:14:00,
2013-07-15 14:20:00,75.7,49.7,30.03,NNW,338,4.0,13.0,40,0.00,,---,0.00,863.00,VWS V14.01,2013-07-15 21:20:00,
2013-07-15 14:26:00,76.8,49.3,30.03,North,355,5.0,9.0,38,0.00,,---,0.00,858.00,VWS V14.01,2013-07-15 21:26:00,
2013-07-15 14:30:00,76.8,48.6,30.03,NW,306,5.0,11.0,37,0.00,,---,0.00,856.00,VWS V14.01,2013-07-15 21:30:00,
2013-07-15 14:31:00,76.6,51.2,30.03,NW,319,4.0,9.0,41,0.00,,---,0.00,856.00,VWS V14.01,2013-07-15 21:31:00,
2013-07-15 14:40:00,76.7,49.2,30.03,North,5,2.0,12.0,38,0.00,,---,0.00,847.00,VWS V14.01,2013-07-15 21:40:00,
2013-07-15 14:50:00,76.6,48.4,30.03,NW,321,3.0,12.0,37,0.00,,---,0.00,840.00,VWS V14.01,2013-07-15 21:50:00,
2013-07-15 14:55:00,76.6,48.4,30.03,West,272,8.0,11.0,37,0.00,,---,0.00,835.00,VWS V14.01,2013-07-15 21:55:00,
2013-07-15 15:00:00,76.1,49.4,30.02,WNW,286,2.0,4.0,39,0.00,,---,0.00,831.00,VWS V14.01,2013-07-15 22:00:00,
2013-07-15 15:05:00,76.2,49.5,30.02,WNW,284,8.0,13.0,39,0.00,,---,0.00,823.00,VWS V14.01,2013-07-15 22:05:00,
2013-07-15 15:10:00,76.4,48.2,30.02,West,269,13.0,14.0,37,0.00,,---,0.00,816.00,VWS V14.01,2013-07-15 22:10:00,
2013-07-15 15:13:00,76.6,49.8,30.02,NW,323,1.0,13.0,39,0.00,,---,0.00,814.00,VWS V14.01,2013-07-15 22:13:00,
2013-07-15 15:18:00,77.2,49.7,30.02,NNW,332,2.0,13.0,38,0.00,,---,0.00,803.00,VWS V14.01,2013-07-15 22:18:00,
2013-07-15 15:20:00,77.2,48.9,30.02,NW,316,4.0,13.0,37,0.00,,---,0.00,802.00,VWS V14.01,2013-07-15 22:20:00,
2013-07-15 15:23:00,77.7,50.8,30.01,NW,325,2.0,11.0,39,0.00,,---,0.00,796.00,VWS V14.01,2013-07-15 22:23:00,
2013-07-15 15:28:00,77.9,49.6,30.01,WNW,292,4.0,12.0,37,0.00,,---,0.00,793.00,VWS V14.01,2013-07-15 22:28:00,
2013-07-15 15:30:00,77.9,47.3,30.02,West,274,9.0,13.0,34,0.00,,---,0.00,789.00,VWS V14.01,2013-07-15 22:30:00,
2013-07-15 15:33:00,77.6,47.8,30.01,WNW,294,5.0,12.0,35,0.00,,---,0.00,784.00,VWS V14.01,2013-07-15 22:33:00,
2013-07-15 15:38:00,77.9,47.3,30.01,NW,311,8.0,16.0,34,0.00,,---,0.00,779.00,VWS V14.01,2013-07-15 22:38:00,
2013-07-15 15:40:00,77.7,46.3,30.01,NNW,341,1.0,16.0,33,0.00,,---,0.00,775.00,VWS V14.01,2013-07-15 22:40:00,
2013-07-15 15:45:00,78.1,48.2,30.01,West,281,11.0,15.0,35,0.00,,---,0.00,766.00,VWS V14.01,2013-07-15 22:45:00,
2013-07-15 15:50:00,77.6,47.0,30.00,NW,326,2.0,10.0,34,0.00,,---,0.00,756.00,VWS V14.01,2013-07-15 22:50:00,
2013-07-15 15:55:00,78.7,48.0,30.00,West,275,6.0,14.0,34,0.00,,---,0.00,749.00,VWS V14.01,2013-07-15 22:55:00,
2013-07-15 16:00:00,78.8,49.6,30.00,NW,311,11.0,14.0,36,0.00,,---,0.00,742.00,VWS V14.01,2013-07-15 23:00:00,
2013-07-15 16:03:00,78.5,47.0,30.00,WNW,290,3.0,15.0,33,0.00,,---,0.00,735.00,VWS V14.01,2013-07-15 23:03:00,
2013-07-15 16:08:00,78.5,47.0,30.00,West,259,13.0,15.0,33,0.00,,---,0.00,728.00,VWS V14.01,2013-07-15 23:08:00,
2013-07-15 16:10:00,78.5,46.2,30.00,West,266,4.0,15.0,32,0.00,,---,0.00,724.00,VWS V14.01,2013-07-15 23:10:00,
2013-07-15 16:13:00,78.6,46.3,30.00,West,266,9.0,11.0,32,0.00,,---,0.00,717.00,VWS V14.01,2013-07-15 23:13:00,
2013-07-15 16:18:00,78.2,46.8,29.99,WNW,287,9.0,13.0,33,0.00,,---,0.00,707.00,VWS V14.01,2013-07-15 23:18:00,
2013-07-15 16:20:00,78.4,47.0,29.99,WNW,285,9.0,13.0,33,0.00,,---,0.00,705.00,VWS V14.01,2013-07-15 23:20:00,
2013-07-15 16:26:00,78.6,47.1,29.99,WNW,282,6.0,14.0,33,0.00,,---,0.00,693.00,VWS V14.01,2013-07-15 23:26:00,
2013-07-15 16:30:00,78.8,47.3,29.99,SW,221,4.0,14.0,33,0.00,,---,0.00,686.00,VWS V14.01,2013-07-15 23:30:00,
2013-07-15 16:31:00,78.6,46.3,29.99,SW,226,6.0,11.0,32,0.00,,---,0.00,682.00,VWS V14.01,2013-07-15 23:31:00,
2013-07-15 16:36:00,78.4,46.1,29.99,West,280,6.0,13.0,32,0.00,,---,0.00,668.00,VWS V14.01,2013-07-15 23:36:00,
2013-07-15 16:40:00,78.5,47.0,29.99,WSW,243,5.0,13.0,33,0.00,,---,0.00,661.00,VWS V14.01,2013-07-15 23:40:00,
2013-07-15 16:41:00,78.9,48.2,29.98,West,269,8.0,8.0,34,0.00,,---,0.00,659.00,VWS V14.01,2013-07-15 23:41:00,
2013-07-15 16:46:00,79.4,47.8,29.98,West,260,7.0,10.0,33,0.00,,---,0.00,647.00,VWS V14.01,2013-07-15 23:46:00,
2013-07-15 16:50:00,79.8,49.0,29.98,NW,321,5.0,12.0,34,0.00,,---,0.00,640.00,VWS V14.01,2013-07-15 23:50:00,
2013-07-15 16:51:00,79.9,48.3,29.98,NW,304,7.0,9.0,33,0.00,,---,0.00,636.00,VWS V14.01,2013-07-15 23:51:00,
2013-07-15 16:59:00,79.1,49.1,29.98,WSW,254,0.0,14.0,35,0.00,,---,0.00,617.00,VWS V14.01,2013-07-15 23:59:00,
2013-07-15 17:00:00,79.2,49.2,29.98,NW,319,5.0,14.0,35,0.00,,---,0.00,615.00,VWS V14.01,2013-07-16 00:00:00,
2013-07-15 17:04:00,79.6,49.6,29.98,West,277,7.0,11.0,35,0.00,,---,0.00,606.00,VWS V14.01,2013-07-16 00:04:00,
2013-07-15 17:09:00,79.3,48.5,29.98,SW,229,4.0,11.0,34,0.00,,---,0.00,594.00,VWS V14.01,2013-07-16 00:09:00,
2013-07-15 17:10:00,79.3,48.5,29.98,SW,235,6.0,11.0,34,0.00,,---,0.00,594.00,VWS V14.01,2013-07-16 00:10:00,
2013-07-15 17:17:00,78.5,48.6,29.98,West,262,10.0,14.0,35,0.00,,---,0.00,575.00,VWS V14.01,2013-07-16 00:17:00,
2013-07-15 17:20:00,78.2,48.3,29.97,WSW,252,5.0,14.0,35,0.00,,---,0.00,570.00,VWS V14.01,2013-07-16 00:20:00,
2013-07-15 17:22:00,78.5,49.3,29.97,NNW,327,0.0,10.0,36,0.00,,---,0.00,563.00,VWS V14.01,2013-07-16 00:22:00,
2013-07-15 17:27:00,79.0,49.8,29.97,WSW,252,5.0,14.0,36,0.00,,---,0.00,550.00,VWS V14.01,2013-07-16 00:27:00,
2013-07-15 17:30:00,78.7,49.5,29.97,West,261,7.0,14.0,36,0.00,,---,0.00,543.00,VWS V14.01,2013-07-16 00:30:00,
2013-07-15 17:32:00,78.3,48.4,29.97,WNW,292,9.0,13.0,35,0.00,,---,0.00,541.00,VWS V14.01,2013-07-16 00:32:00,
2013-07-15 17:37:00,78.0,48.2,29.97,West,281,4.0,13.0,35,0.00,,---,0.00,527.00,VWS V14.01,2013-07-16 00:37:00,
2013-07-15 17:40:00,78.2,48.3,29.97,NW,318,2.0,13.0,35,0.00,,---,0.00,520.00,VWS V14.01,2013-07-16 00:40:00,
2013-07-15 17:42:00,78.3,48.4,29.97,WSW,257,4.0,10.0,35,0.00,,---,0.00,515.00,VWS V14.01,2013-07-16 00:42:00,
2013-07-15 17:47:00,78.5,48.6,29.96,WSW,251,4.0,13.0,35,0.00,,---,0.00,499.00,VWS V14.01,2013-07-16 00:47:00,
2013-07-15 17:50:00,78.4,48.5,29.97,West,271,8.0,13.0,35,0.00,,---,0.00,494.00,VWS V14.01,2013-07-16 00:50:00,
2013-07-15 17:52:00,78.1,48.2,29.97,West,280,8.0,13.0,35,0.00,,---,0.00,487.00,VWS V14.01,2013-07-16 00:52:00,
2013-07-15 17:57:00,78.4,49.3,29.96,West,268,3.0,13.0,36,0.00,,---,0.00,473.00,VWS V14.01,2013-07-16 00:57:00,
2013-07-15 18:00:00,78.5,49.3,29.96,NW,305,4.0,13.0,36,0.00,,---,0.00,464.00,VWS V14.01,2013-07-16 01:00:00,
2013-07-15 18:02:00,78.5,50.1,29.96,SW,236,5.0,9.0,37,0.00,,---,0.00,459.00,VWS V14.01,2013-07-16 01:02:00,
2013-07-15 18:07:00,78.5,48.6,29.96,North,350,0.0,10.0,35,0.00,,---,0.00,448.00,VWS V14.01,2013-07-16 01:07:00,
2013-07-15 18:10:00,78.8,49.6,29.96,NNW,329,3.0,10.0,36,0.00,,---,0.00,439.00,VWS V14.01,2013-07-16 01:10:00,
2013-07-15 18:12:00,78.5,48.6,29.96,WNW,287,8.0,9.0,35,0.00,,---,0.00,432.00,VWS V14.01,2013-07-16 01:12:00,
2013-07-15 18:17:00,78.1,49.0,29.96,NW,317,0.0,10.0,36,0.00,,---,0.00,420.00,VWS V14.01,2013-07-16 01:17:00,
2013-07-15 18:20:00,78.4,47.7,29.96,West,259,6.0,10.0,34,0.00,,---,0.00,415.00,VWS V14.01,2013-07-16 01:20:00,
2013-07-15 18:25:00,78.8,48.9,29.95,NNW,342,5.0,7.0,35,0.00,,---,0.00,397.00,VWS V14.01,2013-07-16 01:25:00,
2013-07-15 18:30:00,78.5,47.8,29.95,West,280,4.0,6.0,34,0.00,,---,0.00,385.00,VWS V14.01,2013-07-16 01:30:00,
2013-07-15 18:38:00,79.1,49.1,29.95,WNW,296,2.0,8.0,35,0.00,,---,0.00,364.00,VWS V14.01,2013-07-16 01:38:00,
2013-07-15 18:40:00,79.0,49.0,29.95,NNW,328,3.0,8.0,35,0.00,,---,0.00,359.00,VWS V14.01,2013-07-16 01:40:00,
2013-07-15 18:43:00,78.5,47.8,29.95,West,276,7.0,8.0,34,0.00,,---,0.00,350.00,VWS V14.01,2013-07-16 01:43:00,
2013-07-15 18:48:00,78.1,48.2,29.95,West,277,4.0,8.0,35,0.00,,---,0.00,336.00,VWS V14.01,2013-07-16 01:48:00,
2013-07-15 18:50:00,78.3,49.2,29.95,West,271,10.0,10.0,36,0.00,,---,0.00,332.00,VWS V14.01,2013-07-16 01:50:00,
2013-07-15 18:53:00,78.4,47.7,29.95,WNW,282,3.0,10.0,34,0.00,,---,0.00,322.00,VWS V14.01,2013-07-16 01:53:00,
2013-07-15 18:58:00,78.7,48.8,29.95,NNW,333,3.0,10.0,35,0.00,,---,0.00,308.00,VWS V14.01,2013-07-16 01:58:00,
2013-07-15 19:00:00,78.7,48.8,29.95,West,274,7.0,10.0,35,0.00,,---,0.00,304.00,VWS V14.01,2013-07-16 02:00:00,
2013-07-15 19:06:00,78.2,49.1,29.95,NW,315,2.0,7.0,36,0.00,,---,0.00,287.00,VWS V14.01,2013-07-16 02:06:00,
2013-07-15 19:10:00,78.7,49.5,29.95,WNW,286,3.0,7.0,36,0.00,,---,0.00,276.00,VWS V14.01,2013-07-16 02:10:00,
2013-07-15 19:11:00,78.5,48.6,29.95,WNW,293,2.0,7.0,35,0.00,,---,0.00,272.00,VWS V14.01,2013-07-16 02:11:00,
2013-07-15 19:16:00,78.5,50.1,29.95,NW,324,1.0,7.0,37,0.00,,---,0.00,257.00,VWS V14.01,2013-07-16 02:16:00,
2013-07-15 19:20:00,78.5,48.6,29.95,NW,325,1.0,7.0,35,0.00,,---,0.00,246.00,VWS V14.01,2013-07-16 02:20:00,
2013-07-15 19:21:00,78.4,49.3,29.95,NW,321,0.0,4.0,36,0.00,,---,0.00,241.00,VWS V14.01,2013-07-16 02:21:00,
2013-07-15 19:29:00,78.0,49.7,29.95,NNW,333,0.0,8.0,37,0.00,,---,0.00,214.00,VWS V14.01,2013-07-16 02:29:00,
2013-07-15 19:30:00,78.0,49.7,29.95,NNW,331,1.0,8.0,37,0.00,,---,0.00,214.00,VWS V14.01,2013-07-16 02:30:00,
2013-07-15 19:34:00,78.0,48.9,29.94,NNW,327,6.0,6.0,36,0.00,,---,0.00,199.00,VWS V14.01,2013-07-16 02:34:00,
2013-07-15 19:39:00,77.8,49.5,29.94,NW,317,4.0,6.0,37,0.00,,---,0.00,185.00,VWS V14.01,2013-07-16 02:39:00,
2013-07-15 19:40:00,77.8,49.5,29.94,NW,316,0.0,6.0,37,0.00,,---,0.00,181.00,VWS V14.01,2013-07-16 02:40:00,
2013-07-15 19:44:00,78.0,50.4,29.94,NW,325,0.0,9.0,38,0.00,,---,0.00,167.00,VWS V14.01,2013-07-16 02:44:00,
2013-07-15 19:49:00,77.2,50.3,29.94,NW,308,0.0,9.0,39,0.00,,---,0.00,151.00,VWS V14.01,2013-07-16 02:49:00,
2013-07-15 19:50:00,77.1,49.6,29.94,NNW,337,4.0,9.0,38,0.00,,---,0.00,149.00,VWS V14.01,2013-07-16 02:50:00,
2013-07-15 19:54:00,76.7,48.5,29.94,WNW,302,4.0,7.0,37,0.00,,---,0.00,137.00,VWS V14.01,2013-07-16 02:54:00,
2013-07-15 19:59:00,76.6,49.1,29.94,WNW,291,0.0,7.0,38,0.00,,---,0.00,121.00,VWS V14.01,2013-07-16 02:59:00,
2013-07-15 20:00:00,76.6,49.1,29.94,WNW,290,0.0,7.0,38,0.00,,---,0.00,120.00,VWS V14.01,2013-07-16 03:00:00,
2013-07-15 20:04:00,76.3,50.2,29.94,NNW,333,1.0,3.0,40,0.00,,---,0.00,107.00,VWS V14.01,2013-07-16 03:04:00,
2013-07-15 20:09:00,75.8,51.1,29.93,NW,325,1.0,4.0,42,0.00,,---,0.00,93.00,VWS V14.01,2013-07-16 03:09:00,
2013-07-15 20:10:00,75.8,51.7,29.94,NW,325,0.0,4.0,43,0.00,,---,0.00,93.00,VWS V14.01,2013-07-16 03:10:00,
2013-07-15 20:14:00,75.5,52.1,29.93,NNW,328,1.0,3.0,44,0.00,,---,0.00,81.00,VWS V14.01,2013-07-16 03:14:00,
2013-07-15 20:19:00,74.9,52.2,29.93,NNW,329,1.0,3.0,45,0.00,,---,0.00,67.00,VWS V14.01,2013-07-16 03:19:00,
2013-07-15 20:20:00,74.9,52.2,29.93,NNW,329,0.0,3.0,45,0.00,,---,0.00,67.00,VWS V14.01,2013-07-16 03:20:00,
2013-07-15 20:24:00,74.3,52.2,29.93,NNW,328,2.0,4.0,46,0.00,,---,0.00,58.00,VWS V14.01,2013-07-16 03:24:00,
2013-07-15 20:29:00,73.8,52.3,29.93,NNW,336,0.0,5.0,47,0.00,,---,0.00,47.00,VWS V14.01,2013-07-16 03:29:00,
2013-07-15 20:30:00,73.8,52.3,29.93,NNW,336,0.0,5.0,47,0.00,,---,0.00,46.00,VWS V14.01,2013-07-16 03:30:00,
2013-07-15 20:34:00,73.5,52.6,29.93,NW,325,0.0,4.0,48,0.00,,---,0.00,39.00,VWS V14.01,2013-07-16 03:34:00,
2013-07-15 20:40:00,73.0,53.3,29.93,NNW,344,2.0,4.0,50,0.00,,---,0.00,30.00,VWS V14.01,2013-07-16 03:40:00,
2013-07-15 20:47:00,71.9,54.4,29.93,NNW,344,0.0,2.0,54,0.00,,---,0.00,19.00,VWS V14.01,2013-07-16 03:47:00,
2013-07-15 20:50:00,71.6,54.1,29.93,NNW,344,2.0,2.0,54,0.00,,---,0.00,16.00,VWS V14.01,2013-07-16 03:50:00,
2013-07-15 20:52:00,71.2,53.7,29.93,NNW,343,1.0,3.0,54,0.00,,---,0.00,9.00,VWS V14.01,2013-07-16 03:52:00,
2013-07-15 20:58:00,70.6,53.7,29.93,NNW,339,2.0,4.0,55,0.00,,---,0.00,7.00,VWS V14.01,2013-07-16 03:58:00,
2013-07-15 21:06:00,70.1,53.7,29.93,NNW,343,0.0,2.0,56,0.00,,---,0.00,5.00,VWS V14.01,2013-07-16 04:06:00,
2013-07-15 21:10:00,69.8,53.9,29.93,NNW,344,1.0,2.0,57,0.00,,---,0.00,5.00,VWS V14.01,2013-07-16 04:10:00,
2013-07-15 21:11:00,69.7,53.8,29.93,NNW,344,1.0,4.0,57,0.00,,---,0.00,0.00,VWS V14.01,2013-07-16 04:11:00,
2013-07-15 21:17:00,69.4,54.5,29.93,NNE,13,0.0,5.0,59,0.00,,---,0.00,0.00,VWS V14.01,2013-07-16 04:17:00,
2013-07-15 21:22:00,69.5,53.1,29.93,North,5,0.0,8.0,56,0.00,,---,0.00,0.00,VWS V14.01,2013-07-16 04:22:00,
2013-07-15 21:27:00,69.8,51.9,29.93,NE,34,2.0,8.0,53,0.00,,---,0.00,0.00,VWS V14.01,2013-07-16 04:27:00,
2013-07-15 21:32:00,70.1,52.2,29.93,NE,46,4.0,5.0,53,0.00,,---,0.00,0.00,VWS V14.01,2013-07-16 04:32:00,
2013-07-15 21:37:00,70.4,52.0,29.93,NNE,19,1.0,7.0,52,0.00,,---,0.00,0.00,VWS V14.01,2013-07-16 04:37:00,
2013-07-15 21:42:00,70.3,51.9,29.93,North,5,1.0,4.0,52,0.00,,---,0.00,0.00,VWS V14.01,2013-07-16 04:42:00,
2013-07-15 21:47:00,69.8,51.4,29.93,NNW,340,0.0,7.0,52,0.00,,---,0.00,0.00,VWS V14.01,2013-07-16 04:47:00,
2013-07-15 21:52:00,69.7,52.3,29.93,NE,34,2.0,8.0,54,0.00,,---,0.00,0.00,VWS V14.01,2013-07-16 04:52:00,
2013-07-15 21:57:00,69.3,52.5,29.93,East,98,2.0,8.0,55,0.00,,---,0.00,0.00,VWS V14.01,2013-07-16 04:57:00,
2013-07-15 22:02:00,69.1,51.8,29.94,SE,127,0.0,1.0,54,0.00,,---,0.00,0.00,VWS V14.01,2013-07-16 05:02:00,
2013-07-15 22:07:00,69.5,52.2,29.94,SE,130,0.0,1.0,54,0.00,,---,0.00,0.00,VWS V14.01,2013-07-16 05:07:00,
2013-07-15 22:12:00,68.8,53.4,29.94,SE,130,0.0,0.0,58,0.00,,---,0.00,0.00,VWS V14.01,2013-07-16 05:12:00,
2013-07-15 22:17:00,68.1,53.7,29.94,SE,130,0.0,2.0,60,0.00,,---,0.00,0.00,VWS V14.01,2013-07-16 05:17:00,
2013-07-15 22:22:00,67.7,52.9,29.94,SE,130,0.0,0.0,59,0.00,,---,0.00,0.00,VWS V14.01,2013-07-16 05:22:00,
2013-07-15 22:27:00,67.4,52.6,29.94,SE,130,0.0,1.0,59,0.00,,---,0.00,0.00,VWS V14.01,2013-07-16 05:27:00,
2013-07-15 22:32:00,67.1,52.8,29.94,SE,130,0.0,0.0,60,0.00,,---,0.00,0.00,VWS V14.01,2013-07-16 05:32:00,
2013-07-15 22:37:00,66.9,52.6,29.93,East,86,0.0,3.0,60,0.00,,---,0.00,0.00,VWS V14.01,2013-07-16 05:37:00,
2013-07-15 22:42:00,67.4,53.0,29.93,NNE,30,0.0,2.0,60,0.00,,---,0.00,0.00,VWS V14.01,2013-07-16 05:42:00,
2013-07-15 22:47:00,67.3,52.0,29.93,ENE,59,5.0,5.0,58,0.00,,---,0.00,0.00,VWS V14.01,2013-07-16 05:47:00,
2013-07-15 22:52:00,67.8,53.0,29.94,NNW,342,6.0,6.0,59,0.00,,---,0.00,0.00,VWS V14.01,2013-07-16 05:52:00,
2013-07-15 22:57:00,68.0,52.7,29.94,NE,36,0.0,6.0,58,0.00,,---,0.00,0.00,VWS V14.01,2013-07-16 05:57:00,
2013-07-15 23:02:00,67.7,51.0,29.94,NNE,28,1.0,7.0,55,0.00,,---,0.00,0.00,VWS V14.01,2013-07-16 06:02:00,
2013-07-15 23:07:00,67.6,52.8,29.94,NNE,28,2.0,7.0,59,0.00,,---,0.00,0.00,VWS V14.01,2013-07-16 06:07:00,
2013-07-15 23:12:00,68.1,51.8,29.93,North,355,0.0,3.0,56,0.00,,---,0.00,0.00,VWS V14.01,2013-07-16 06:12:00,
2013-07-15 23:17:00,68.0,50.8,29.93,NNE,29,2.0,6.0,54,0.00,,---,0.00,0.00,VWS V14.01,2013-07-16 06:17:00,
2013-07-15 23:22:00,68.3,51.5,29.93,NNE,12,1.0,4.0,55,0.00,,---,0.00,0.00,VWS V14.01,2013-07-16 06:22:00,
2013-07-15 23:27:00,68.3,51.5,29.93,NNE,24,2.0,7.0,55,0.00,,---,0.00,0.00,VWS V14.01,2013-07-16 06:27:00,
2013-07-15 23:32:00,68.1,51.3,29.93,NNE,32,0.0,4.0,55,0.00,,---,0.00,0.00,VWS V14.01,2013-07-16 06:32:00,
2013-07-15 23:37:00,67.4,53.0,29.93,NNE,32,0.0,4.0,60,0.00,,---,0.00,0.00,VWS V14.01,2013-07-16 06:37:00,
2013-07-15 23:42:00,66.8,52.5,29.93,NNE,17,0.0,2.0,60,0.00,,---,0.00,0.00,VWS V14.01,2013-07-16 06:42:00,
2013-07-15 23:47:00,66.2,53.7,29.94,NNE,17,0.0,2.0,64,0.00,,---,0.00,0.00,VWS V14.01,2013-07-16 06:47:00,
2013-07-15 23:52:00,65.8,52.9,29.93,NNE,17,0.0,1.0,63,0.00,,---,0.00,0.00,VWS V14.01,2013-07-16 06:52:00,
2013-07-15 23:57:00,65.6,53.1,29.94,NNE,17,0.0,3.0,64,0.00,,---,0.00,0.00,VWS V14.01,2013-07-16 06:57:00,